Terminal Aerodrome Forecast
Issued by NWS Duluth, MN

Home | Current Version | Previous Version | Text Only | Print | Product List | Glossary On
Versions: 1 2 3 4 5 6 7 8 9 10 11 12 13 14 15 16 17 18 19 20 21 22 23 24
475
FTUS43 KDLH 250543
TAFDLH
TAF
KDLH 250543Z 2506/2606 32009KT P6SM SCT020 BKN050
     FM250900 32007KT P6SM VCSH BKN008 OVC015
     FM251400 30008KT 5SM -SHRA OVC007
     FM251800 31010G17KT P6SM -RA OVC015
     FM260000 32012KT P6SM OVC050=

USA.gov is the U.S. government's official web portal to all federal, state and local government web resources and services.